Time,TemperatureF,DewpointF,PressureIn,WindDirection,WindDirectionDegrees,WindSpeedMPH,WindSpeedGustMPH,Humidity,HourlyPrecipIn,Conditions,Clouds,dailyrainin,SoftwareType,DateUTC
2018-01-19 00:02:00,21.0,12.1,30.03,NNW,337,0.0,0.0,68,0.00,,,0.00,WUHU21623XXSP,2018-01-19 05:02:00,
2018-01-19 00:07:00,21.0,12.1,30.03,NNW,337,0.0,0.0,68,0.00,,,0.00,WUHU21623XXSP,2018-01-19 05:07:00,
2018-01-19 00:12:00,20.7,12.0,30.03,NNW,337,0.0,0.0,69,0.00,,,0.00,WUHU21623XXSP,2018-01-19 05:12:00,
2018-01-19 00:17:00,20.5,11.9,30.03,NNW,337,0.0,0.0,69,0.00,,,0.00,WUHU21623XXSP,2018-01-19 05:17:00,
2018-01-19 00:22:00,20.5,12.2,30.03,NNW,337,0.0,0.0,70,0.00,,,0.00,WUHU21623XXSP,2018-01-19 05:22:00,
2018-01-19 00:27:00,20.5,12.2,30.03,NNW,337,0.0,0.0,70,0.00,,,0.00,WUHU21623XXSP,2018-01-19 05:27:00,
2018-01-19 00:32:00,20.3,12.0,30.03,NNW,337,0.0,0.0,70,0.00,,,0.00,WUHU21623XXSP,2018-01-19 05:32:00,
2018-01-19 00:37:00,19.9,11.7,30.03,NNW,337,0.0,0.0,70,0.00,,,0.00,WUHU21623XXSP,2018-01-19 05:37:00,
2018-01-19 00:42:00,19.8,11.8,30.03,NNW,337,0.0,0.0,71,0.00,,,0.00,WUHU21623XXSP,2018-01-19 05:42:00,
2018-01-19 00:47:00,19.6,11.6,30.03,NNW,337,0.0,0.0,71,0.00,,,0.00,WUHU21623XXSP,2018-01-19 05:47:00,
2018-01-19 00:52:00,19.4,11.4,30.03,NNW,337,0.0,0.0,71,0.00,,,0.00,WUHU21623XXSP,2018-01-19 05:52:00,
2018-01-19 00:57:00,19.2,11.2,30.03,NNW,337,0.0,0.0,71,0.00,,,0.00,WUHU21623XXSP,2018-01-19 05:57:00,
2018-01-19 01:02:00,19.2,11.2,30.03,NNW,337,0.0,0.0,71,0.00,,,0.00,WUHU21623XXSP,2018-01-19 06:02:00,
2018-01-19 01:07:00,19.0,11.6,30.03,NNW,337,0.0,0.0,72,0.00,,,0.00,WUHU21623XXSP,2018-01-19 06:07:00,
2018-01-19 01:12:00,19.2,11.6,30.03,NNW,337,0.0,0.0,72,0.00,,,0.00,WUHU21623XXSP,2018-01-19 06:12:00,
2018-01-19 01:17:00,19.6,11.9,30.02,NW,315,0.0,1.4,72,0.00,,,0.00,WUHU21623XXSP,2018-01-19 06:17:00,
2018-01-19 01:22:00,19.6,11.9,30.03,NW,315,0.0,1.4,72,0.00,,,0.00,WUHU21623XXSP,2018-01-19 06:22:00,
2018-01-19 01:27:00,19.6,11.9,30.02,NW,315,0.0,0.0,72,0.00,,,0.00,WUHU21623XXSP,2018-01-19 06:27:00,
2018-01-19 01:32:00,19.6,11.9,30.03,NW,315,0.0,0.0,72,0.00,,,0.00,WUHU21623XXSP,2018-01-19 06:32:00,
2018-01-19 01:37:00,19.2,11.6,30.02,NW,315,0.0,0.0,72,0.00,,,0.00,WUHU21623XXSP,2018-01-19 06:37:00,
2018-01-19 01:42:00,19.0,11.6,30.03,NW,315,0.0,0.0,72,0.00,,,0.00,WUHU21623XXSP,2018-01-19 06:42:00,
2018-01-19 01:47:00,18.7,11.1,30.03,NW,315,0.0,0.0,72,0.00,,,0.00,WUHU21623XXSP,2018-01-19 06:47:00,
2018-01-19 01:52:00,18.3,10.7,30.03,NW,315,0.0,0.0,72,0.00,,,0.00,WUHU21623XXSP,2018-01-19 06:52:00,
2018-01-19 01:57:00,18.0,10.6,30.03,NW,315,0.0,0.0,72,0.00,,,0.00,WUHU21623XXSP,2018-01-19 06:57:00,
2018-01-19 02:02:00,18.0,10.4,30.03,NW,315,0.0,0.0,72,0.00,,,0.00,WUHU21623XXSP,2018-01-19 07:02:00,
2018-01-19 02:07:00,17.8,10.5,30.02,NW,315,0.0,0.0,73,0.00,,,0.00,WUHU21623XXSP,2018-01-19 07:07:00,
2018-01-19 02:12:00,17.8,10.5,30.03,NW,315,0.0,0.0,73,0.00,,,0.00,WUHU21623XXSP,2018-01-19 07:12:00,
2018-01-19 02:17:00,18.3,11.3,30.03,NW,315,0.0,0.0,74,0.00,,,0.00,WUHU21623XXSP,2018-01-19 07:17:00,
2018-01-19 02:22:00,19.0,11.7,30.03,NW,315,0.0,0.0,74,0.00,,,0.00,WUHU21623XXSP,2018-01-19 07:22:00,
2018-01-19 02:27:00,19.4,12.2,30.02,NW,315,0.0,0.0,74,0.00,,,0.00,WUHU21623XXSP,2018-01-19 07:27:00,
2018-01-19 02:32:00,19.4,12.3,30.02,NW,315,0.0,0.0,74,0.00,,,0.00,WUHU21623XXSP,2018-01-19 07:32:00,
2018-01-19 02:37:00,19.2,12.2,30.03,NW,315,0.0,0.0,74,0.00,,,0.00,WUHU21623XXSP,2018-01-19 07:37:00,
2018-01-19 02:42:00,19.6,12.5,30.03,NW,315,0.0,0.0,74,0.00,,,0.00,WUHU21623XXSP,2018-01-19 07:42:00,
2018-01-19 02:47:00,19.6,12.5,30.03,NW,315,0.0,0.0,74,0.00,,,0.00,WUHU21623XXSP,2018-01-19 07:47:00,
2018-01-19 02:52:00,19.6,12.5,30.03,NW,315,0.0,0.0,74,0.00,,,0.00,WUHU21623XXSP,2018-01-19 07:52:00,
2018-01-19 02:57:00,19.9,12.7,30.04,SSW,202,5.1,9.4,74,0.00,,,0.00,WUHU21623XXSP,2018-01-19 07:57:00,
2018-01-19 03:02:00,20.1,13.1,30.03,South,180,2.2,9.4,74,0.00,,,0.00,WUHU21623XXSP,2018-01-19 08:02:00,
2018-01-19 03:07:00,19.9,12.9,30.03,South,180,0.0,2.9,74,0.00,,,0.00,WUHU21623XXSP,2018-01-19 08:07:00,
2018-01-19 03:12:00,19.4,12.0,30.03,South,180,0.0,0.0,73,0.00,,,0.00,WUHU21623XXSP,2018-01-19 08:12:00,
2018-01-19 03:17:00,19.0,12.0,30.02,SSW,202,0.0,0.0,74,0.00,,,0.00,WUHU21623XXSP,2018-01-19 08:17:00,
2018-01-19 03:22:00,18.7,11.7,30.02,South,180,0.0,0.0,74,0.00,,,0.00,WUHU21623XXSP,2018-01-19 08:22:00,
2018-01-19 03:27:00,18.5,11.5,30.02,SSW,202,6.9,9.0,74,0.00,,,0.00,WUHU21623XXSP,2018-01-19 08:27:00,
2018-01-19 03:32:00,18.5,11.5,30.02,South,180,0.0,9.0,74,0.00,,,0.00,WUHU21623XXSP,2018-01-19 08:32:00,
2018-01-19 03:37:00,18.5,11.5,30.02,South,180,0.0,0.0,74,0.00,,,0.00,WUHU21623XXSP,2018-01-19 08:37:00,
2018-01-19 03:42:00,18.5,11.5,30.02,SSE,157,1.8,2.3,74,0.00,,,0.00,WUHU21623XXSP,2018-01-19 08:42:00,
2018-01-19 03:47:00,18.5,11.5,30.02,SSE,157,0.0,2.3,74,0.00,,,0.00,WUHU21623XXSP,2018-01-19 08:47:00,
2018-01-19 03:53:00,18.3,11.6,30.03,SSE,157,0.0,0.0,75,0.00,,,0.00,WUHU21623XXSP,2018-01-19 08:53:00,
2018-01-19 03:58:00,18.3,11.6,30.02,South,180,0.0,0.9,75,0.00,,,0.00,WUHU21623XXSP,2018-01-19 08:58:00,
2018-01-19 04:03:00,18.3,11.6,30.02,South,180,0.0,0.9,75,0.00,,,0.00,WUHU21623XXSP,2018-01-19 09:03:00,
2018-01-19 04:07:00,18.3,11.6,30.02,South,180,0.0,0.0,75,0.00,,,0.00,WUHU21623XXSP,2018-01-19 09:07:00,
2018-01-19 04:12:00,18.1,11.4,30.02,South,180,0.0,0.0,75,0.00,,,0.00,WUHU21623XXSP,2018-01-19 09:12:00,
2018-01-19 04:18:00,18.1,11.4,30.02,South,180,3.8,4.9,75,0.00,,,0.00,WUHU21623XXSP,2018-01-19 09:18:00,
2018-01-19 04:23:00,18.3,11.6,30.02,South,180,0.0,4.9,75,0.00,,,0.00,WUHU21623XXSP,2018-01-19 09:23:00,
2018-01-19 04:28:00,18.5,11.8,30.02,South,180,0.0,0.0,75,0.00,,,0.00,WUHU21623XXSP,2018-01-19 09:28:00,
2018-01-19 04:33:00,18.5,11.8,30.01,South,180,0.0,0.0,75,0.00,,,0.00,WUHU21623XXSP,2018-01-19 09:33:00,
2018-01-19 04:38:00,18.5,11.8,30.01,South,180,3.6,4.7,75,0.00,,,0.00,WUHU21623XXSP,2018-01-19 09:38:00,
2018-01-19 04:43:00,18.7,12.0,30.01,South,180,0.0,4.7,75,0.00,,,0.00,WUHU21623XXSP,2018-01-19 09:43:00,
2018-01-19 04:48:00,18.7,12.0,30.02,South,180,0.0,2.9,75,0.00,,,0.00,WUHU21623XXSP,2018-01-19 09:48:00,
2018-01-19 04:53:00,18.7,12.0,30.02,South,180,0.0,2.9,75,0.00,,,0.00,WUHU21623XXSP,2018-01-19 09:53:00,
2018-01-19 04:58:00,18.7,12.0,30.02,South,180,0.0,0.0,75,0.00,,,0.00,WUHU21623XXSP,2018-01-19 09:58:00,
2018-01-19 05:03:00,18.5,11.8,30.02,South,180,0.0,0.0,75,0.00,,,0.00,WUHU21623XXSP,2018-01-19 10:03:00,
2018-01-19 05:08:00,18.3,11.6,30.01,South,180,0.0,0.0,75,0.00,,,0.00,WUHU21623XXSP,2018-01-19 10:08:00,
2018-01-19 05:13:00,18.1,11.4,30.02,South,180,0.0,0.0,75,0.00,,,0.00,WUHU21623XXSP,2018-01-19 10:13:00,
2018-01-19 05:18:00,18.1,11.7,30.01,South,180,0.0,0.0,76,0.00,,,0.00,WUHU21623XXSP,2018-01-19 10:18:00,
2018-01-19 05:23:00,18.1,11.7,30.01,South,180,0.0,0.0,76,0.00,,,0.00,WUHU21623XXSP,2018-01-19 10:23:00,
2018-01-19 05:28:00,18.1,11.7,30.01,South,180,0.0,0.0,76,0.00,,,0.00,WUHU21623XXSP,2018-01-19 10:28:00,
2018-01-19 05:33:00,18.3,11.9,30.00,South,180,2.7,3.5,76,0.00,,,0.00,WUHU21623XXSP,2018-01-19 10:33:00,
2018-01-19 05:38:00,18.3,11.9,30.00,South,180,0.0,3.5,76,0.00,,,0.00,WUHU21623XXSP,2018-01-19 10:38:00,
2018-01-19 05:43:00,18.5,12.1,30.01,SSW,202,6.0,8.7,76,0.00,,,0.00,WUHU21623XXSP,2018-01-19 10:43:00,
2018-01-19 05:48:00,18.7,12.3,30.01,SSW,202,5.8,8.7,76,0.00,,,0.00,WUHU21623XXSP,2018-01-19 10:48:00,
2018-01-19 05:53:00,18.9,12.4,30.01,SSW,202,6.5,8.4,76,0.00,,,0.00,WUHU21623XXSP,2018-01-19 10:53:00,
2018-01-19 05:58:00,19.0,12.6,30.00,South,180,2.0,9.4,76,0.00,,,0.00,WUHU21623XXSP,2018-01-19 10:58:00,
2018-01-19 06:03:00,19.2,12.8,30.00,SSW,202,7.8,10.1,76,0.00,,,0.00,WUHU21623XXSP,2018-01-19 11:03:00,
2018-01-19 06:08:00,19.8,13.3,30.00,SSW,202,6.5,11.3,76,0.00,,,0.00,WUHU21623XXSP,2018-01-19 11:08:00,
2018-01-19 06:13:00,19.9,13.5,30.01,SSW,202,8.7,11.3,76,0.00,,,0.00,WUHU21623XXSP,2018-01-19 11:13:00,
2018-01-19 06:18:00,20.1,13.7,30.00,SSW,202,8.7,11.3,76,0.00,,,0.00,WUHU21623XXSP,2018-01-19 11:18:00,
2018-01-19 06:23:00,19.9,13.5,30.01,South,180,0.0,11.3,76,0.00,,,0.00,WUHU21623XXSP,2018-01-19 11:23:00,
2018-01-19 06:28:00,19.9,13.5,30.01,SSW,202,5.6,7.3,76,0.00,,,0.00,WUHU21623XXSP,2018-01-19 11:28:00,
2018-01-19 06:33:00,19.6,13.3,30.01,South,180,0.0,7.3,76,0.00,,,0.00,WUHU21623XXSP,2018-01-19 11:33:00,
2018-01-19 06:38:00,19.6,13.1,30.01,South,180,0.0,0.0,76,0.00,,,0.00,WUHU21623XXSP,2018-01-19 11:38:00,
2018-01-19 06:43:00,19.4,13.0,30.01,South,180,0.0,0.0,76,0.00,,,0.00,WUHU21623XXSP,2018-01-19 11:43:00,
2018-01-19 06:48:00,19.2,12.5,30.01,South,180,0.0,6.6,75,0.00,,,0.00,WUHU21623XXSP,2018-01-19 11:48:00,
2018-01-19 06:53:00,19.2,12.5,30.01,South,180,0.9,6.6,75,0.00,,,0.00,WUHU21623XXSP,2018-01-19 11:53:00,
2018-01-19 06:58:00,19.0,12.6,30.01,SSW,202,0.0,1.2,76,0.00,,,0.00,WUHU21623XXSP,2018-01-19 11:58:00,
2018-01-19 07:03:00,18.9,12.4,30.01,South,180,0.0,0.0,76,0.00,,,0.00,WUHU21623XXSP,2018-01-19 12:03:00,
2018-01-19 07:08:00,18.7,12.3,30.01,South,180,0.0,0.0,76,0.00,,,0.00,WUHU21623XXSP,2018-01-19 12:08:00,
2018-01-19 07:13:00,18.7,12.3,30.01,South,180,0.0,0.0,76,0.00,,,0.00,WUHU21623XXSP,2018-01-19 12:13:00,
2018-01-19 07:18:00,18.7,12.3,30.01,South,180,0.0,0.0,76,0.00,,,0.00,WUHU21623XXSP,2018-01-19 12:18:00,
2018-01-19 07:23:00,18.7,12.3,30.01,SSW,202,1.3,1.7,76,0.00,,,0.00,WUHU21623XXSP,2018-01-19 12:23:00,
2018-01-19 07:28:00,18.7,12.3,30.01,South,180,0.0,2.9,76,0.00,,,0.00,WUHU21623XXSP,2018-01-19 12:28:00,
2018-01-19 07:33:00,18.7,12.3,30.01,South,180,7.2,9.4,76,0.00,,,0.00,WUHU21623XXSP,2018-01-19 12:33:00,
2018-01-19 07:38:00,18.9,12.4,30.01,South,180,4.0,9.4,76,0.00,,,0.00,WUHU21623XXSP,2018-01-19 12:38:00,
2018-01-19 07:43:00,18.9,12.4,30.01,SSW,202,0.0,7.0,76,0.00,,,0.00,WUHU21623XXSP,2018-01-19 12:43:00,
2018-01-19 07:48:00,19.0,12.6,30.01,South,180,3.1,4.4,76,0.00,,,0.00,WUHU21623XXSP,2018-01-19 12:48:00,
2018-01-19 07:53:00,19.0,12.6,30.01,SSW,202,2.9,9.0,76,0.00,,,0.00,WUHU21623XXSP,2018-01-19 12:53:00,
2018-01-19 07:58:00,19.0,12.6,30.01,South,180,2.0,9.0,76,0.00,,,0.00,WUHU21623XXSP,2018-01-19 12:58:00,
2018-01-19 08:03:00,19.2,12.6,30.00,SSW,202,2.5,4.9,76,0.00,,,0.00,WUHU21623XXSP,2018-01-19 13:03:00,
2018-01-19 08:08:00,19.2,12.8,30.00,South,180,2.5,4.9,76,0.00,,,0.00,WUHU21623XXSP,2018-01-19 13:08:00,
2018-01-19 08:13:00,19.2,12.8,30.00,SSW,202,5.4,7.0,76,0.00,,,0.00,WUHU21623XXSP,2018-01-19 13:13:00,
2018-01-19 08:18:00,19.2,12.8,30.00,SSW,202,0.0,7.5,76,0.00,,,0.00,WUHU21623XXSP,2018-01-19 13:18:00,
2018-01-19 08:23:00,19.4,13.0,30.00,SSW,202,0.0,8.4,76,0.00,,,0.00,WUHU21623XXSP,2018-01-19 13:23:00,
2018-01-19 08:28:00,19.6,13.0,29.99,South,180,0.0,8.4,76,0.00,,,0.00,WUHU21623XXSP,2018-01-19 13:28:00,
2018-01-19 08:33:00,19.6,13.1,29.99,South,180,2.2,2.9,76,0.00,,,0.00,WUHU21623XXSP,2018-01-19 13:33:00,
2018-01-19 08:38:00,19.6,13.1,29.99,South,180,1.3,7.5,76,0.00,,,0.00,WUHU21623XXSP,2018-01-19 13:38:00,
2018-01-19 08:43:00,19.6,13.1,29.99,SSW,202,6.9,9.0,76,0.00,,,0.00,WUHU21623XXSP,2018-01-19 13:43:00,
2018-01-19 08:48:00,20.3,13.7,29.99,SSW,202,2.7,9.0,76,0.00,,,0.00,WUHU21623XXSP,2018-01-19 13:48:00,
2018-01-19 08:53:00,20.5,14.0,29.99,South,180,6.3,9.6,76,0.00,,,0.00,WUHU21623XXSP,2018-01-19 13:53:00,
2018-01-19 08:58:00,20.8,14.4,29.98,South,180,5.6,9.6,76,0.00,,,0.00,WUHU21623XXSP,2018-01-19 13:58:00,
2018-01-19 09:03:00,21.0,14.6,29.99,SSW,202,7.2,9.4,76,0.00,,,0.00,WUHU21623XXSP,2018-01-19 14:03:00,
2018-01-19 09:08:00,21.6,15.1,29.99,SSW,202,9.6,12.5,76,0.00,,,0.00,WUHU21623XXSP,2018-01-19 14:08:00,
2018-01-19 09:13:00,21.9,15.2,29.99,SSW,202,9.8,13.9,75,0.00,,,0.00,WUHU21623XXSP,2018-01-19 14:13:00,
2018-01-19 09:18:00,22.3,15.5,29.99,SSW,202,11.4,14.8,75,0.00,,,0.00,WUHU21623XXSP,2018-01-19 14:18:00,
2018-01-19 09:23:00,22.8,16.1,29.99,SSW,202,9.4,14.8,75,0.00,,,0.00,WUHU21623XXSP,2018-01-19 14:23:00,
2018-01-19 09:28:00,23.0,15.9,30.00,SSW,202,9.4,13.9,74,0.00,,,0.00,WUHU21623XXSP,2018-01-19 14:28:00,
2018-01-19 09:33:00,23.4,16.1,30.00,SSW,202,10.7,13.9,74,0.00,,,0.00,WUHU21623XXSP,2018-01-19 14:33:00,
2018-01-19 09:38:00,23.9,16.8,29.99,SW,225,9.8,13.9,74,0.00,,,0.00,WUHU21623XXSP,2018-01-19 14:38:00,
2018-01-19 09:43:00,24.1,16.6,30.00,SSW,202,9.4,13.4,73,0.00,,,0.00,WUHU21623XXSP,2018-01-19 14:43:00,
2018-01-19 09:48:00,24.6,17.0,29.99,South,180,5.6,12.2,73,0.00,,,0.00,WUHU21623XXSP,2018-01-19 14:48:00,
2018-01-19 09:53:00,24.6,17.1,29.99,SSW,202,8.3,12.0,73,0.00,,,0.00,WUHU21623XXSP,2018-01-19 14:53:00,
2018-01-19 09:58:00,25.0,17.5,29.98,SSW,202,10.7,13.9,73,0.00,,,0.00,WUHU21623XXSP,2018-01-19 14:58:00,
2018-01-19 10:03:00,25.3,17.5,29.98,SSW,202,5.8,13.9,72,0.00,,,0.00,WUHU21623XXSP,2018-01-19 15:03:00,
2018-01-19 10:08:00,25.9,18.0,29.98,SSW,202,6.9,9.4,72,0.00,,,0.00,WUHU21623XXSP,2018-01-19 15:08:00,
2018-01-19 10:13:00,26.2,18.4,29.98,SSW,202,7.6,9.9,72,0.00,,,0.00,WUHU21623XXSP,2018-01-19 15:13:00,
2018-01-19 10:18:00,26.6,18.8,29.98,South,180,6.5,9.9,72,0.00,,,0.00,WUHU21623XXSP,2018-01-19 15:18:00,
2018-01-19 10:23:00,27.1,19.1,29.99,SSW,202,7.8,10.1,72,0.00,,,0.00,WUHU21623XXSP,2018-01-19 15:23:00,
2018-01-19 10:28:00,27.3,19.2,29.98,SSW,202,7.4,10.1,71,0.00,,,0.00,WUHU21623XXSP,2018-01-19 15:28:00,
2018-01-19 10:33:00,27.7,19.5,29.99,South,180,7.2,11.1,71,0.00,,,0.00,WUHU21623XXSP,2018-01-19 15:33:00,
2018-01-19 10:38:00,28.2,19.6,29.99,SSW,202,10.7,13.9,70,0.00,,,0.00,WUHU21623XXSP,2018-01-19 15:38:00,
2018-01-19 10:43:00,28.6,20.1,29.99,South,180,6.3,14.6,70,0.00,,,0.00,WUHU21623XXSP,2018-01-19 15:43:00,
2018-01-19 10:48:00,29.1,20.2,30.00,SSW,202,7.6,14.6,69,0.00,,,0.00,WUHU21623XXSP,2018-01-19 15:48:00,
2018-01-19 10:53:00,29.5,20.4,30.00,South,180,7.6,13.6,69,0.00,,,0.00,WUHU21623XXSP,2018-01-19 15:53:00,
2018-01-19 10:58:00,29.8,20.5,30.00,South,180,7.2,12.5,68,0.00,,,0.00,WUHU21623XXSP,2018-01-19 15:58:00,
2018-01-19 11:03:00,30.4,21.0,30.00,South,180,6.7,12.5,68,0.00,,,0.00,WUHU21623XXSP,2018-01-19 16:03:00,
2018-01-19 11:08:00,30.7,21.4,30.00,SSW,202,8.5,11.1,68,0.00,,,0.00,WUHU21623XXSP,2018-01-19 16:08:00,
2018-01-19 11:13:00,31.1,21.4,30.00,SSW,202,9.8,12.7,67,0.00,,,0.00,WUHU21623XXSP,2018-01-19 16:13:00,
2018-01-19 11:18:00,31.6,21.9,30.00,SSW,202,5.6,12.7,67,0.00,,,0.00,WUHU21623XXSP,2018-01-19 16:18:00,
2018-01-19 11:23:00,31.8,22.1,30.00,SSW,202,10.1,13.1,67,0.00,,,0.00,WUHU21623XXSP,2018-01-19 16:23:00,
2018-01-19 11:28:00,32.2,22.1,29.99,South,180,4.9,13.1,66,0.00,,,0.00,WUHU21623XXSP,2018-01-19 16:28:00,
2018-01-19 11:33:00,32.7,22.4,30.00,SSW,202,5.4,9.4,65,0.00,,,0.00,WUHU21623XXSP,2018-01-19 16:33:00,
2018-01-19 11:38:00,33.1,22.4,30.00,SSW,202,5.4,7.0,65,0.00,,,0.00,WUHU21623XXSP,2018-01-19 16:38:00,
2018-01-19 11:43:00,33.6,23.0,30.00,South,180,5.8,10.8,65,0.00,,,0.00,WUHU21623XXSP,2018-01-19 16:43:00,
2018-01-19 11:48:00,34.3,23.4,29.99,South,180,5.8,10.8,65,0.00,,,0.00,WUHU21623XXSP,2018-01-19 16:48:00,
2018-01-19 11:53:00,34.3,23.7,29.99,SSW,202,6.7,8.7,65,0.00,,,0.00,WUHU21623XXSP,2018-01-19 16:53:00,
2018-01-19 11:58:00,34.7,23.7,29.99,South,180,6.7,8.7,64,0.00,,,0.00,WUHU21623XXSP,2018-01-19 16:58:00,
2018-01-19 12:03:00,35.1,24.1,29.98,SSW,202,5.4,9.0,64,0.00,,,0.00,WUHU21623XXSP,2018-01-19 17:03:00,
2018-01-19 12:08:00,35.2,23.9,29.98,South,180,6.9,9.0,64,0.00,,,0.00,WUHU21623XXSP,2018-01-19 17:08:00,
2018-01-19 12:13:00,35.4,24.4,29.98,SSW,202,3.8,9.0,64,0.00,,,0.00,WUHU21623XXSP,2018-01-19 17:13:00,
2018-01-19 12:18:00,35.6,24.3,29.97,South,180,3.4,12.7,63,0.00,,,0.00,WUHU21623XXSP,2018-01-19 17:18:00,
2018-01-19 12:23:00,35.8,24.4,29.97,South,180,7.4,12.7,63,0.00,,,0.00,WUHU21623XXSP,2018-01-19 17:23:00,
2018-01-19 12:28:00,36.0,24.6,29.97,South,180,4.0,9.6,63,0.00,,,0.00,WUHU21623XXSP,2018-01-19 17:28:00,
2018-01-19 12:33:00,36.3,24.9,29.96,South,180,6.5,9.6,63,0.00,,,0.00,WUHU21623XXSP,2018-01-19 17:33:00,
2018-01-19 12:38:00,36.3,24.9,29.95,South,180,4.9,8.4,63,0.00,,,0.00,WUHU21623XXSP,2018-01-19 17:38:00,
2018-01-19 12:43:00,36.5,25.1,29.95,SSE,157,7.2,9.4,63,0.00,,,0.00,WUHU21623XXSP,2018-01-19 17:43:00,
2018-01-19 12:48:00,36.7,24.9,29.94,SSW,202,6.5,9.4,62,0.00,,,0.00,WUHU21623XXSP,2018-01-19 17:48:00,
2018-01-19 12:53:00,37.0,25.2,29.94,South,180,4.9,9.4,62,0.00,,,0.00,WUHU21623XXSP,2018-01-19 17:53:00,
2018-01-19 12:58:00,37.2,25.8,29.94,South,180,6.3,8.2,62,0.00,,,0.00,WUHU21623XXSP,2018-01-19 17:58:00,
2018-01-19 13:03:00,37.6,25.7,29.94,SSW,202,4.0,8.2,62,0.00,,,0.00,WUHU21623XXSP,2018-01-19 18:03:00,
2018-01-19 13:08:00,37.8,25.9,29.93,South,180,7.2,9.4,62,0.00,,,0.00,WUHU21623XXSP,2018-01-19 18:08:00,
2018-01-19 13:13:00,37.8,25.5,29.93,South,180,6.9,9.4,61,0.00,,,0.00,WUHU21623XXSP,2018-01-19 18:13:00,
2018-01-19 13:18:00,37.9,25.7,29.92,SSE,157,8.5,11.1,61,0.00,,,0.00,WUHU21623XXSP,2018-01-19 18:18:00,
2018-01-19 13:23:00,37.9,25.7,29.92,SSW,202,6.3,11.1,61,0.00,,,0.00,WUHU21623XXSP,2018-01-19 18:23:00,
2018-01-19 13:28:00,38.1,25.8,29.92,SSE,157,8.3,10.8,61,0.00,,,0.00,WUHU21623XXSP,2018-01-19 18:28:00,
2018-01-19 13:33:00,38.3,26.0,29.91,South,180,7.4,12.0,61,0.00,,,0.00,WUHU21623XXSP,2018-01-19 18:33:00,
2018-01-19 13:38:00,38.1,25.8,29.91,South,180,7.4,12.0,61,0.00,,,0.00,WUHU21623XXSP,2018-01-19 18:38:00,
2018-01-19 13:48:00,37.9,25.7,29.91,South,180,3.6,9.9,61,0.00,,,0.00,WUHU21623XXSP,2018-01-19 18:48:00,
2018-01-19 13:53:00,38.1,25.7,29.91,SW,225,8.1,10.5,61,0.00,,,0.00,WUHU21623XXSP,2018-01-19 18:53:00,
2018-01-19 13:58:00,38.3,25.8,29.91,South,180,10.3,13.4,61,0.00,,,0.00,WUHU21623XXSP,2018-01-19 18:58:00,
2018-01-19 14:03:00,38.3,26.0,29.90,South,180,7.2,13.4,61,0.00,,,0.00,WUHU21623XXSP,2018-01-19 19:03:00,
2018-01-19 14:08:00,38.3,25.6,29.91,SSW,202,5.8,13.4,60,0.00,,,0.00,WUHU21623XXSP,2018-01-19 19:08:00,
2018-01-19 14:13:00,38.3,25.6,29.90,South,180,8.9,12.5,60,0.00,,,0.00,WUHU21623XXSP,2018-01-19 19:13:00,
2018-01-19 14:18:00,38.3,26.0,29.90,South,180,6.7,11.6,61,0.00,,,0.00,WUHU21623XXSP,2018-01-19 19:18:00,
2018-01-19 14:23:00,38.3,26.0,29.91,SSW,202,6.9,13.1,61,0.00,,,0.00,WUHU21623XXSP,2018-01-19 19:23:00,
2018-01-19 14:28:00,38.3,26.0,29.90,SSW,202,6.5,13.1,61,0.00,,,0.00,WUHU21623XXSP,2018-01-19 19:28:00,
2018-01-19 14:33:00,38.5,26.1,29.90,South,180,6.9,12.0,61,0.00,,,0.00,WUHU21623XXSP,2018-01-19 19:33:00,
2018-01-19 14:38:00,38.8,26.5,29.90,South,180,5.4,12.0,61,0.00,,,0.00,WUHU21623XXSP,2018-01-19 19:38:00,
2018-01-19 14:43:00,39.0,26.6,29.90,South,180,9.8,12.7,61,0.00,,,0.00,WUHU21623XXSP,2018-01-19 19:43:00,
2018-01-19 14:48:00,38.8,26.5,29.90,SSE,157,7.6,12.7,60,0.00,,,0.00,WUHU21623XXSP,2018-01-19 19:48:00,
2018-01-19 14:53:00,38.5,26.1,29.90,SSE,157,7.2,11.1,61,0.00,,,0.00,WUHU21623XXSP,2018-01-19 19:53:00,
2018-01-19 14:58:00,38.5,26.1,29.90,South,180,8.7,11.3,61,0.00,,,0.00,WUHU21623XXSP,2018-01-19 19:58:00,
2018-01-19 15:03:00,38.3,26.0,29.89,South,180,6.9,11.3,61,0.00,,,0.00,WUHU21623XXSP,2018-01-19 20:03:00,
2018-01-19 15:08:00,38.1,25.8,29.90,South,180,8.7,11.3,61,0.00,,,0.00,WUHU21623XXSP,2018-01-19 20:08:00,
2018-01-19 15:13:00,38.1,26.2,29.90,South,180,5.8,12.7,62,0.00,,,0.00,WUHU21623XXSP,2018-01-19 20:13:00,
2018-01-19 15:18:00,37.9,26.0,29.89,South,180,6.5,12.7,62,0.00,,,0.00,WUHU21623XXSP,2018-01-19 20:18:00,
2018-01-19 15:23:00,37.8,25.9,29.89,South,180,7.8,10.1,62,0.00,,,0.00,WUHU21623XXSP,2018-01-19 20:23:00,
2018-01-19 15:28:00,37.8,25.9,29.89,South,180,9.8,12.7,62,0.00,,,0.00,WUHU21623XXSP,2018-01-19 20:28:00,
2018-01-19 15:33:00,37.8,25.9,29.88,South,180,7.4,12.7,62,0.00,,,0.00,WUHU21623XXSP,2018-01-19 20:33:00,
2018-01-19 15:38:00,37.6,25.7,29.88,South,180,7.2,12.7,62,0.00,,,0.00,WUHU21623XXSP,2018-01-19 20:38:00,
2018-01-19 15:43:00,37.2,25.6,29.89,South,180,8.7,11.6,62,0.00,,,0.00,WUHU21623XXSP,2018-01-19 20:43:00,
2018-01-19 15:48:00,37.2,25.4,29.88,SSW,202,8.7,11.3,62,0.00,,,0.00,WUHU21623XXSP,2018-01-19 20:48:00,
2018-01-19 15:53:00,37.2,25.4,29.88,SSW,202,8.7,11.3,63,0.00,,,0.00,WUHU21623XXSP,2018-01-19 20:53:00,
2018-01-19 15:58:00,37.2,25.8,29.88,SSE,157,7.4,11.6,63,0.00,,,0.00,WUHU21623XXSP,2018-01-19 20:58:00,
2018-01-19 16:03:00,37.2,25.8,29.88,SSE,157,5.6,11.6,63,0.00,,,0.00,WUHU21623XXSP,2018-01-19 21:03:00,
2018-01-19 16:08:00,37.0,25.6,29.88,SSE,157,5.6,8.4,63,0.00,,,0.00,WUHU21623XXSP,2018-01-19 21:08:00,
2018-01-19 16:13:00,36.9,25.4,29.89,South,180,7.6,9.9,63,0.00,,,0.00,WUHU21623XXSP,2018-01-19 21:13:00,
2018-01-19 16:18:00,36.5,25.1,29.88,SSE,157,6.7,9.9,64,0.00,,,0.00,WUHU21623XXSP,2018-01-19 21:18:00,
2018-01-19 16:23:00,36.3,25.3,29.88,SSE,157,6.7,9.9,64,0.00,,,0.00,WUHU21623XXSP,2018-01-19 21:23:00,
2018-01-19 16:28:00,36.3,25.3,29.88,South,180,4.3,8.7,65,0.00,,,0.00,WUHU21623XXSP,2018-01-19 21:28:00,
2018-01-19 16:33:00,36.1,25.5,29.88,South,180,8.5,11.1,65,0.00,,,0.00,WUHU21623XXSP,2018-01-19 21:33:00,
2018-01-19 16:38:00,36.1,25.5,29.88,South,180,9.8,12.7,65,0.00,,,0.00,WUHU21623XXSP,2018-01-19 21:38:00,
2018-01-19 16:43:00,35.8,25.1,29.88,SSE,157,6.9,13.4,65,0.00,,,0.00,WUHU21623XXSP,2018-01-19 21:43:00,
2018-01-19 16:48:00,35.4,24.8,29.88,South,180,6.9,13.4,66,0.00,,,0.00,WUHU21623XXSP,2018-01-19 21:48:00,
2018-01-19 16:53:00,35.2,25.0,29.88,SSE,157,9.8,12.7,66,0.00,,,0.00,WUHU21623XXSP,2018-01-19 21:53:00,
2018-01-19 16:58:00,34.9,24.6,29.88,South,180,9.4,12.7,66,0.00,,,0.00,WUHU21623XXSP,2018-01-19 21:58:00,
2018-01-19 17:03:00,34.5,24.3,29.88,South,180,6.5,12.2,66,0.00,,,0.00,WUHU21623XXSP,2018-01-19 22:03:00,
2018-01-19 17:08:00,34.3,24.4,29.88,South,180,6.0,10.5,67,0.00,,,0.00,WUHU21623XXSP,2018-01-19 22:08:00,
2018-01-19 17:13:00,34.2,24.3,29.88,South,180,7.8,10.8,67,0.00,,,0.00,WUHU21623XXSP,2018-01-19 22:13:00,
2018-01-19 17:18:00,34.0,24.4,29.88,South,180,6.5,10.8,68,0.00,,,0.00,WUHU21623XXSP,2018-01-19 22:18:00,
2018-01-19 17:23:00,33.8,24.3,29.88,South,180,6.7,10.1,68,0.00,,,0.00,WUHU21623XXSP,2018-01-19 22:23:00,
2018-01-19 17:28:00,33.8,24.3,29.88,South,180,8.9,11.6,68,0.00,,,0.00,WUHU21623XXSP,2018-01-19 22:28:00,
2018-01-19 17:33:00,33.6,24.1,29.88,South,180,8.1,11.6,68,0.00,,,0.00,WUHU21623XXSP,2018-01-19 22:33:00,
2018-01-19 17:38:00,33.6,24.1,29.88,South,180,8.1,11.6,68,0.00,,,0.00,WUHU21623XXSP,2018-01-19 22:38:00,
2018-01-19 17:43:00,33.6,24.1,29.87,South,180,8.1,10.5,68,0.00,,,0.00,WUHU21623XXSP,2018-01-19 22:43:00,
2018-01-19 17:48:00,33.6,24.1,29.87,South,180,7.6,10.5,68,0.00,,,0.00,WUHU21623XXSP,2018-01-19 22:48:00,
2018-01-19 17:53:00,33.4,23.9,29.88,South,180,8.7,11.3,68,0.00,,,0.00,WUHU21623XXSP,2018-01-19 22:53:00,
2018-01-19 17:58:00,33.4,23.9,29.87,South,180,10.1,13.1,68,0.00,,,0.00,WUHU21623XXSP,2018-01-19 22:58:00,
2018-01-19 18:03:00,33.3,24.1,29.87,South,180,7.4,13.1,69,0.00,,,0.00,WUHU21623XXSP,2018-01-19 23:03:00,
2018-01-19 18:08:00,33.3,24.1,29.87,South,180,8.7,13.1,69,0.00,,,0.00,WUHU21623XXSP,2018-01-19 23:08:00,
2018-01-19 18:13:00,33.4,24.3,29.87,South,180,7.2,11.3,69,0.00,,,0.00,WUHU21623XXSP,2018-01-19 23:13:00,
2018-01-19 18:18:00,33.4,24.3,29.87,South,180,7.6,11.1,69,0.00,,,0.00,WUHU21623XXSP,2018-01-19 23:18:00,
2018-01-19 18:23:00,33.4,24.3,29.88,South,180,5.1,9.9,69,0.00,,,0.00,WUHU21623XXSP,2018-01-19 23:23:00,
2018-01-19 18:28:00,33.6,24.5,29.87,South,180,3.6,9.9,69,0.00,,,0.00,WUHU21623XXSP,2018-01-19 23:28:00,
2018-01-19 18:33:00,33.6,24.5,29.87,South,180,7.8,10.1,69,0.00,,,0.00,WUHU21623XXSP,2018-01-19 23:33:00,
2018-01-19 18:38:00,33.6,24.5,29.87,South,180,6.7,10.1,69,0.00,,,0.00,WUHU21623XXSP,2018-01-19 23:38:00,
2018-01-19 18:43:00,33.6,24.5,29.86,South,180,7.2,9.4,69,0.00,,,0.00,WUHU21623XXSP,2018-01-19 23:43:00,
2018-01-19 18:48:00,33.6,24.5,29.86,South,180,5.8,9.6,69,0.00,,,0.00,WUHU21623XXSP,2018-01-19 23:48:00,
2018-01-19 18:53:00,33.6,24.5,29.86,South,180,7.6,9.9,69,0.00,,,0.00,WUHU21623XXSP,2018-01-19 23:53:00,
2018-01-19 18:58:00,33.6,24.8,29.86,South,180,7.4,9.9,70,0.00,,,0.00,WUHU21623XXSP,2018-01-19 23:58:00,
2018-01-19 19:03:00,33.6,24.8,29.86,South,180,7.2,9.9,70,0.00,,,0.00,WUHU21623XXSP,2018-01-20 00:03:00,
2018-01-19 19:08:00,33.4,24.7,29.86,South,180,7.4,9.6,70,0.00,,,0.00,WUHU21623XXSP,2018-01-20 00:08:00,
2018-01-19 19:13:00,33.4,24.7,29.86,SSE,157,4.3,9.6,70,0.00,,,0.00,WUHU21623XXSP,2018-01-20 00:13:00,
2018-01-19 19:18:00,33.6,24.8,29.86,South,180,5.8,11.6,70,0.00,,,0.00,WUHU21623XXSP,2018-01-20 00:18:00,
2018-01-19 19:23:00,33.6,25.1,29.86,South,180,7.8,11.6,71,0.00,,,0.00,WUHU21623XXSP,2018-01-20 00:23:00,
2018-01-19 19:28:00,34.0,25.5,29.86,South,180,5.1,10.1,71,0.00,,,0.00,WUHU21623XXSP,2018-01-20 00:28:00,
2018-01-19 19:33:00,34.0,25.5,29.86,South,180,5.4,13.4,71,0.00,,,0.00,WUHU21623XXSP,2018-01-20 00:33:00,
2018-01-19 19:38:00,33.6,25.1,29.86,South,180,3.8,13.4,71,0.00,,,0.00,WUHU21623XXSP,2018-01-20 00:38:00,
2018-01-19 19:39:00,33.6,25.1,29.86,SSE,157,6.9,9.0,71,0.00,,,0.00,WUHU21623XXSP,2018-01-20 00:39:00,
2018-01-19 19:44:00,33.6,25.5,29.86,South,180,5.6,9.0,72,0.00,,,0.00,WUHU21623XXSP,2018-01-20 00:44:00,
2018-01-19 19:50:00,33.4,25.3,29.86,SSE,157,4.9,8.2,72,0.00,,,0.00,WUHU21623XXSP,2018-01-20 00:50:00,
2018-01-19 19:55:00,33.3,25.1,29.86,South,180,5.8,8.2,72,0.00,,,0.00,WUHU21623XXSP,2018-01-20 00:55:00,
2018-01-19 20:00:00,33.1,25.0,29.86,SSE,157,5.8,7.8,72,0.00,,,0.00,WUHU21623XXSP,2018-01-20 01:00:00,
2018-01-19 20:05:00,33.4,25.6,29.86,South,180,5.6,14.8,73,0.00,,,0.00,WUHU21623XXSP,2018-01-20 01:05:00,
2018-01-19 20:10:00,33.4,25.6,29.86,South,180,5.4,14.8,73,0.00,,,0.00,WUHU21623XXSP,2018-01-20 01:10:00,
2018-01-19 20:15:00,33.4,25.6,29.86,SSE,157,6.5,8.4,73,0.00,,,0.00,WUHU21623XXSP,2018-01-20 01:15:00,
2018-01-19 20:20:00,33.6,26.1,29.86,SSW,202,6.0,8.4,74,0.00,,,0.00,WUHU21623XXSP,2018-01-20 01:20:00,
2018-01-19 20:24:00,33.6,26.1,29.86,South,180,5.6,8.4,74,0.00,,,0.00,WUHU21623XXSP,2018-01-20 01:24:00,
2018-01-19 20:30:00,33.6,26.1,29.86,South,180,6.0,9.0,74,0.00,,,0.00,WUHU21623XXSP,2018-01-20 01:30:00,
2018-01-19 20:35:00,33.6,26.1,29.86,South,180,9.6,12.5,74,0.00,,,0.00,WUHU21623XXSP,2018-01-20 01:35:00,
2018-01-19 20:40:00,34.0,26.1,29.86,South,180,9.6,12.5,74,0.00,,,0.00,WUHU21623XXSP,2018-01-20 01:40:00,
2018-01-19 20:45:00,34.3,26.5,29.86,SSW,202,12.8,16.6,73,0.00,,,0.00,WUHU21623XXSP,2018-01-20 01:45:00,
2018-01-19 20:49:00,34.3,26.7,29.86,South,180,3.6,16.6,73,0.00,,,0.00,WUHU21623XXSP,2018-01-20 01:49:00,
2018-01-19 20:54:00,34.3,26.5,29.86,South,180,6.5,8.4,73,0.00,,,0.00,WUHU21623XXSP,2018-01-20 01:54:00,
2018-01-19 20:59:00,34.3,26.5,29.86,South,180,6.7,11.1,73,0.00,,,0.00,WUHU21623XXSP,2018-01-20 01:59:00,
2018-01-19 21:04:00,34.5,26.5,29.86,South,180,6.7,11.1,73,0.00,,,0.00,WUHU21623XXSP,2018-01-20 02:04:00,
2018-01-19 21:09:00,34.9,27.0,29.86,South,180,6.7,11.1,73,0.00,,,0.00,WUHU21623XXSP,2018-01-20 02:09:00,
2018-01-19 21:14:00,34.9,26.7,29.86,SSW,202,10.1,13.1,72,0.00,,,0.00,WUHU21623XXSP,2018-01-20 02:14:00,
2018-01-19 21:19:00,34.9,26.7,29.86,South,180,9.6,13.4,72,0.00,,,0.00,WUHU21623XXSP,2018-01-20 02:19:00,
2018-01-19 21:24:00,34.7,26.7,29.86,South,180,7.8,13.4,72,0.00,,,0.00,WUHU21623XXSP,2018-01-20 02:24:00,
2018-01-19 21:29:00,34.5,26.3,29.86,SSW,202,9.4,12.2,72,0.00,,,0.00,WUHU21623XXSP,2018-01-20 02:29:00,
2018-01-19 21:34:00,34.5,26.3,29.85,SSW,202,9.6,12.5,72,0.00,,,0.00,WUHU21623XXSP,2018-01-20 02:34:00,
2018-01-19 21:39:00,34.9,26.4,29.85,South,180,9.8,12.7,71,0.00,,,0.00,WUHU21623XXSP,2018-01-20 02:39:00,
2018-01-19 21:44:00,34.9,26.4,29.85,SSW,202,12.3,16.0,71,0.00,,,0.00,WUHU21623XXSP,2018-01-20 02:44:00,
2018-01-19 21:49:00,34.9,26.4,29.85,SSW,202,12.5,16.3,71,0.00,,,0.00,WUHU21623XXSP,2018-01-20 02:49:00,
2018-01-19 21:54:00,35.2,26.4,29.84,SSW,202,8.3,16.3,70,0.00,,,0.00,WUHU21623XXSP,2018-01-20 02:54:00,
2018-01-19 21:59:00,35.2,26.1,29.85,SSW,202,12.3,16.0,69,0.00,,,0.00,WUHU21623XXSP,2018-01-20 02:59:00,
2018-01-19 22:04:00,35.4,26.2,29.85,SSW,202,9.4,16.0,69,0.00,,,0.00,WUHU21623XXSP,2018-01-20 03:04:00,
2018-01-19 22:09:00,35.4,26.2,29.85,SW,225,11.2,16.0,69,0.00,,,0.00,WUHU21623XXSP,2018-01-20 03:09:00,
2018-01-19 22:14:00,35.4,25.9,29.85,South,180,9.8,17.4,68,0.00,,,0.00,WUHU21623XXSP,2018-01-20 03:14:00,
2018-01-19 22:19:00,35.4,25.9,29.86,SSW,202,10.5,17.4,68,0.00,,,0.00,WUHU21623XXSP,2018-01-20 03:19:00,
2018-01-19 22:24:00,35.4,25.9,29.86,SSW,202,8.5,14.6,68,0.00,,,0.00,WUHU21623XXSP,2018-01-20 03:24:00,
2018-01-19 22:29:00,35.4,25.9,29.86,SSW,202,9.8,14.6,68,0.00,,,0.00,WUHU21623XXSP,2018-01-20 03:29:00,
2018-01-19 22:34:00,35.2,25.7,29.86,SSW,202,11.0,14.3,68,0.00,,,0.00,WUHU21623XXSP,2018-01-20 03:34:00,
2018-01-19 22:38:00,35.2,25.7,29.86,SSW,202,11.2,14.6,68,0.00,,,0.00,WUHU21623XXSP,2018-01-20 03:38:00,
2018-01-19 22:43:00,35.2,25.7,29.86,SSW,202,13.0,16.9,68,0.00,,,0.00,WUHU21623XXSP,2018-01-20 03:43:00,
2018-01-19 22:48:00,35.2,25.7,29.85,SSW,202,9.8,18.1,68,0.00,,,0.00,WUHU21623XXSP,2018-01-20 03:48:00,
2018-01-19 22:53:00,35.2,25.7,29.86,SSW,202,9.6,18.1,68,0.00,,,0.00,WUHU21623XXSP,2018-01-20 03:53:00,
2018-01-19 22:58:00,35.2,25.7,29.85,South,180,9.2,12.5,68,0.00,,,0.00,WUHU21623XXSP,2018-01-20 03:58:00,
2018-01-19 23:03:00,35.2,25.7,29.85,SSW,202,9.8,14.6,68,0.00,,,0.00,WUHU21623XXSP,2018-01-20 04:03:00,
2018-01-19 23:08:00,35.2,25.7,29.86,SSW,202,8.9,14.6,68,0.00,,,0.00,WUHU21623XXSP,2018-01-20 04:08:00,
2018-01-19 23:13:00,35.2,25.7,29.85,SSW,202,6.9,13.9,68,0.00,,,0.00,WUHU21623XXSP,2018-01-20 04:13:00,